createdAt,value
2023-03-17T00:01:21.092Z,0.70
2023-03-17T00:02:52.796Z,0.70
2023-03-17T00:04:27.359Z,0.70
2023-03-17T00:06:00.558Z,0.80
2023-03-17T00:07:32.799Z,0.70
2023-03-17T00:09:04.594Z,0.80
2023-03-17T00:10:37.661Z,0.70
2023-03-17T00:12:11.951Z,0.80
2023-03-17T00:13:46.250Z,0.70
2023-03-17T00:15:18.089Z,0.80
2023-03-17T00:16:52.868Z,1.00
2023-03-17T00:18:24.958Z,0.70
2023-03-17T00:19:56.772Z,0.80
2023-03-17T00:21:34.057Z,0.50
2023-03-17T00:23:07.357Z,0.60
2023-03-17T00:24:39.165Z,0.70
2023-03-17T00:26:12.476Z,0.80
2023-03-17T00:27:45.644Z,0.70
2023-03-17T00:29:17.412Z,0.80
2023-03-17T00:30:54.872Z,0.70
2023-03-17T00:32:27.562Z,0.60
2023-03-17T00:34:00.598Z,0.90
2023-03-17T00:35:33.372Z,0.60
2023-03-17T00:37:05.286Z,0.90
2023-03-17T00:38:37.572Z,0.60
2023-03-17T00:40:31.277Z,1.00
2023-03-17T00:42:04.388Z,0.90
2023-03-17T00:43:36.794Z,0.70
2023-03-17T00:45:10.142Z,0.90
2023-03-17T00:46:42.363Z,0.80
2023-03-17T00:48:18.664Z,0.80
2023-03-17T00:49:50.351Z,0.50
2023-03-17T00:51:23.448Z,0.40
2023-03-17T00:52:58.144Z,0.90
2023-03-17T00:54:29.848Z,0.80
2023-03-17T00:56:09.049Z,0.60
2023-03-17T00:57:42.275Z,0.60
2023-03-17T00:59:26.057Z,0.70
2023-03-17T01:00:59.713Z,0.70
2023-03-17T01:02:32.266Z,0.50
2023-03-17T01:04:04.769Z,0.70
2023-03-17T01:05:36.441Z,0.70
2023-03-17T01:07:11.341Z,0.70
2023-03-17T01:08:44.927Z,0.70
2023-03-17T01:10:22.559Z,0.70
2023-03-17T01:11:55.847Z,0.90
2023-03-17T01:13:28.414Z,0.70
2023-03-17T01:15:00.139Z,0.90
2023-03-17T01:16:32.045Z,0.70
2023-03-17T01:18:04.055Z,0.80
2023-03-17T01:19:37.456Z,0.90
2023-03-17T01:21:09.478Z,0.70
2023-03-17T01:22:41.970Z,0.60
2023-03-17T01:24:14.580Z,0.60
2023-03-17T01:25:46.292Z,0.90
2023-03-17T01:27:21.817Z,0.80
2023-03-17T01:28:53.851Z,0.80
2023-03-17T01:30:34.631Z,0.80
2023-03-17T01:32:07.055Z,0.60
2023-03-17T01:33:38.739Z,0.70
2023-03-17T01:35:11.591Z,0.80
2023-03-17T01:36:43.388Z,0.60
2023-03-17T01:38:15.734Z,0.50
2023-03-17T01:39:47.721Z,0.80
2023-03-17T01:41:22.894Z,0.70
2023-03-17T01:43:11.064Z,0.60
2023-03-17T01:45:03.463Z,0.80
2023-03-17T01:46:36.593Z,0.80
2023-03-17T01:48:09.147Z,0.60
2023-03-17T01:49:42.258Z,0.50
2023-03-17T01:51:26.768Z,0.90
2023-03-17T01:52:59.205Z,0.70
2023-03-17T01:54:40.705Z,0.50
2023-03-17T01:56:12.828Z,0.70
2023-03-17T01:57:54.297Z,0.70
2023-03-17T01:59:33.708Z,0.80
2023-03-17T02:01:07.535Z,0.60
2023-03-17T02:02:44.429Z,0.60
2023-03-17T02:04:19.528Z,0.70
2023-03-17T02:05:54.436Z,0.80
2023-03-17T02:07:28.038Z,0.60
2023-03-17T02:09:01.637Z,0.70
2023-03-17T02:10:33.518Z,0.60
2023-03-17T02:12:08.158Z,0.70
2023-03-17T02:13:41.897Z,0.80
2023-03-17T02:15:15.343Z,0.80
2023-03-17T02:16:47.600Z,0.70
2023-03-17T02:18:22.764Z,0.60
2023-03-17T02:19:56.272Z,1.00
2023-03-17T02:21:37.138Z,0.60
2023-03-17T02:23:08.905Z,0.70
2023-03-17T02:24:47.060Z,0.90
2023-03-17T02:26:21.500Z,0.40
2023-03-17T02:28:01.627Z,0.90
2023-03-17T02:29:36.132Z,0.60
2023-03-17T02:31:09.519Z,0.50
2023-03-17T02:32:41.395Z,0.80
2023-03-17T02:34:13.602Z,0.90
2023-03-17T02:35:46.185Z,0.70
2023-03-17T02:37:21.512Z,0.90
2023-03-17T02:38:53.527Z,0.80
2023-03-17T02:40:25.365Z,0.90
2023-03-17T02:41:57.383Z,1.00
2023-03-17T02:43:29.232Z,0.80
2023-03-17T02:45:01.209Z,0.80
2023-03-17T02:46:32.982Z,0.70
2023-03-17T02:48:06.099Z,0.80
2023-03-17T02:49:41.016Z,0.60
2023-03-17T02:51:14.280Z,0.90
2023-03-17T02:52:46.065Z,0.90
2023-03-17T02:54:18.038Z,1.00
2023-03-17T02:55:49.765Z,0.70
2023-03-17T02:57:22.073Z,0.80
2023-03-17T02:58:53.986Z,0.80
2023-03-17T03:00:26.475Z,0.70
2023-03-17T03:01:58.231Z,0.80
2023-03-17T03:03:30.767Z,0.60
2023-03-17T03:05:02.998Z,0.60
2023-03-17T03:06:36.657Z,0.70
2023-03-17T03:08:09.199Z,0.80
2023-03-17T03:09:42.083Z,0.90
2023-03-17T03:11:14.121Z,1.00
2023-03-17T03:12:47.351Z,0.80
2023-03-17T03:14:19.079Z,0.60
2023-03-17T03:15:50.867Z,0.90
2023-03-17T03:17:23.032Z,0.40
2023-03-17T03:18:55.018Z,1.00
2023-03-17T03:20:26.734Z,0.70
2023-03-17T03:21:58.426Z,0.60
2023-03-17T03:23:30.774Z,0.80
2023-03-17T03:25:02.915Z,0.80
2023-03-17T03:26:35.168Z,0.50
2023-03-17T03:28:08.396Z,0.80
2023-03-17T03:29:40.219Z,0.60
2023-03-17T03:31:12.453Z,0.90
2023-03-17T03:32:44.452Z,0.80
2023-03-17T03:34:16.614Z,0.80
2023-03-17T03:35:48.441Z,0.80
2023-03-17T03:37:21.574Z,1.00
2023-03-17T03:38:53.404Z,0.80
2023-03-17T03:40:25.805Z,0.60
2023-03-17T03:41:58.469Z,0.60
2023-03-17T03:43:30.285Z,0.80
2023-03-17T03:45:02.415Z,1.10
2023-03-17T03:46:34.263Z,0.80
2023-03-17T03:48:06.910Z,0.70
2023-03-17T03:49:38.968Z,0.90
2023-03-17T03:51:10.887Z,0.70
2023-03-17T03:52:42.974Z,0.60
2023-03-17T03:54:14.876Z,0.80
2023-03-17T03:55:46.804Z,0.90
2023-03-17T03:57:18.710Z,0.90
2023-03-17T03:58:51.239Z,0.80
2023-03-17T04:00:23.489Z,0.80
2023-03-17T04:01:55.554Z,0.60
2023-03-17T04:03:27.979Z,0.80
2023-03-17T04:05:00.307Z,0.90
2023-03-17T04:06:32.046Z,0.70
2023-03-17T04:08:03.842Z,0.70
2023-03-17T04:09:37.281Z,0.70
2023-03-17T04:11:08.989Z,0.90
2023-03-17T04:12:41.882Z,0.70
2023-03-17T04:14:14.039Z,0.60
2023-03-17T04:15:45.992Z,0.50
2023-03-17T04:17:17.935Z,1.00
2023-03-17T04:18:49.638Z,0.90
2023-03-17T04:20:22.057Z,1.00
2023-03-17T04:21:54.888Z,0.80
2023-03-17T04:23:27.725Z,0.60
2023-03-17T04:24:59.455Z,0.90
2023-03-17T04:26:32.401Z,0.90
2023-03-17T04:28:04.781Z,1.20
2023-03-17T04:29:36.644Z,0.70
2023-03-17T04:31:12.408Z,0.80
2023-03-17T04:32:46.305Z,0.70
2023-03-17T04:34:19.621Z,0.80
2023-03-17T04:35:51.671Z,0.90
2023-03-17T04:37:24.159Z,0.60
2023-03-17T04:38:55.969Z,0.80
2023-03-17T04:40:27.683Z,1.00
2023-03-17T04:41:59.554Z,0.50
2023-03-17T04:43:31.410Z,0.80
2023-03-17T04:45:05.631Z,0.80
2023-03-17T04:46:38.225Z,0.80
2023-03-17T04:48:09.919Z,0.90
2023-03-17T04:49:41.663Z,0.90
2023-03-17T04:51:13.388Z,0.80
2023-03-17T04:52:45.673Z,0.70
2023-03-17T04:54:17.675Z,0.80
2023-03-17T04:55:49.488Z,0.90
2023-03-17T04:57:22.261Z,0.80
2023-03-17T04:58:54.250Z,0.80
2023-03-17T05:00:26.085Z,0.90
2023-03-17T05:01:57.883Z,0.80
2023-03-17T05:03:30.251Z,1.00
2023-03-17T05:05:02.712Z,0.90
2023-03-17T05:06:34.754Z,0.90
2023-03-17T05:08:06.621Z,0.80
2023-03-17T05:09:38.536Z,0.90
2023-03-17T05:11:11.520Z,0.90
2023-03-17T05:12:43.217Z,0.70
2023-03-17T05:14:15.632Z,0.90
2023-03-17T05:15:49.809Z,0.80
2023-03-17T05:17:21.532Z,0.90
2023-03-17T05:18:53.326Z,0.60
2023-03-17T05:20:25.067Z,1.00
2023-03-17T05:21:56.836Z,0.70
2023-03-17T05:23:29.913Z,0.90
2023-03-17T05:25:01.646Z,0.80
2023-03-17T05:26:33.399Z,0.50
2023-03-17T05:28:05.457Z,1.20
2023-03-17T05:29:38.061Z,0.90
2023-03-17T05:31:11.184Z,1.00
2023-03-17T05:32:43.265Z,0.80
2023-03-17T05:34:15.987Z,0.70
2023-03-17T05:35:47.861Z,0.90
2023-03-17T05:37:19.833Z,1.50
2023-03-17T05:38:52.402Z,0.70
2023-03-17T05:40:24.816Z,0.70
2023-03-17T05:41:57.211Z,0.90
2023-03-17T05:43:28.992Z,0.70
2023-03-17T05:45:00.675Z,0.90
2023-03-17T05:46:32.735Z,0.80
2023-03-17T05:48:04.868Z,0.90
2023-03-17T05:49:36.928Z,0.90
2023-03-17T05:51:09.123Z,0.90
2023-03-17T05:52:41.422Z,0.90
2023-03-17T05:54:13.918Z,0.90
2023-03-17T05:55:45.764Z,1.10
2023-03-17T05:57:18.222Z,0.50
2023-03-17T05:58:50.218Z,0.80
2023-03-17T06:00:23.087Z,1.00
2023-03-17T06:01:54.860Z,1.00
2023-03-17T06:03:26.646Z,1.00
2023-03-17T06:04:58.404Z,0.90
2023-03-17T06:06:30.111Z,0.80
2023-03-17T06:08:02.490Z,0.90
2023-03-17T06:09:34.260Z,0.90
2023-03-17T06:11:06.074Z,1.30
2023-03-17T06:12:37.945Z,0.70
2023-03-17T06:14:09.715Z,1.10
2023-03-17T06:15:43.143Z,1.00
2023-03-17T06:17:15.309Z,1.00
2023-03-17T06:18:47.232Z,0.90
2023-03-17T06:20:19.682Z,1.00
2023-03-17T06:21:51.951Z,1.10
2023-03-17T06:23:23.772Z,0.90
2023-03-17T06:24:56.144Z,1.30
2023-03-17T06:26:28.557Z,1.10
2023-03-17T06:28:03.890Z,0.80
2023-03-17T06:29:35.854Z,0.80
2023-03-17T06:31:08.899Z,1.10
2023-03-17T06:32:40.807Z,1.20
2023-03-17T06:34:12.594Z,1.10
2023-03-17T06:35:44.498Z,1.00
2023-03-17T06:37:16.612Z,1.00
2023-03-17T06:38:48.347Z,1.30
2023-03-17T06:40:20.387Z,1.00
2023-03-17T06:41:52.460Z,1.00
2023-03-17T06:43:25.042Z,0.90
2023-03-17T06:44:57.044Z,0.70
2023-03-17T06:46:28.977Z,0.90
2023-03-17T06:48:01.639Z,1.00
2023-03-17T06:49:33.973Z,1.10
2023-03-17T06:51:06.324Z,0.80
2023-03-17T06:52:40.013Z,1.10
2023-03-17T06:54:12.299Z,1.30
2023-03-17T06:55:45.124Z,1.00
2023-03-17T06:57:16.840Z,1.00
2023-03-17T06:58:48.633Z,0.90
2023-03-17T07:00:22.503Z,1.20
2023-03-17T07:01:54.825Z,0.90
2023-03-17T07:03:27.820Z,1.10
2023-03-17T07:05:00.778Z,0.90
2023-03-17T07:06:34.001Z,1.10
2023-03-17T07:08:06.345Z,1.10
2023-03-17T07:09:38.328Z,1.10
2023-03-17T07:11:10.079Z,0.90
2023-03-17T07:12:42.714Z,1.40
2023-03-17T07:14:14.602Z,0.70
2023-03-17T07:15:46.382Z,1.00
2023-03-17T07:17:19.608Z,1.00
2023-03-17T07:18:51.606Z,1.00
2023-03-17T07:20:23.309Z,1.30
2023-03-17T07:21:56.092Z,1.10
2023-03-17T07:23:29.545Z,1.20
2023-03-17T07:25:01.273Z,0.90
2023-03-17T07:26:33.224Z,1.20
2023-03-17T07:28:05.136Z,1.00
2023-03-17T07:29:36.879Z,1.10
2023-03-17T07:31:10.545Z,1.20
2023-03-17T07:32:43.425Z,0.70
2023-03-17T07:34:16.523Z,0.90
2023-03-17T07:35:49.640Z,1.10
2023-03-17T07:37:21.686Z,1.20
2023-03-17T07:38:53.515Z,0.90
2023-03-17T07:40:26.116Z,1.10
2023-03-17T07:41:57.882Z,1.00
2023-03-17T07:43:30.733Z,0.90
2023-03-17T07:45:05.083Z,1.10
2023-03-17T07:46:38.910Z,0.90
2023-03-17T07:48:11.297Z,1.00
2023-03-17T07:49:43.183Z,1.10
2023-03-17T07:51:22.379Z,1.10
2023-03-17T07:52:54.049Z,1.20
2023-03-17T07:54:27.373Z,1.20
2023-03-17T07:55:59.081Z,1.40
2023-03-17T07:57:30.899Z,1.00
2023-03-17T07:59:02.923Z,0.90
2023-03-17T08:00:36.300Z,1.10
2023-03-17T08:02:16.347Z,1.00
2023-03-17T08:03:48.180Z,1.00
2023-03-17T08:05:20.858Z,1.00
2023-03-17T08:06:52.545Z,1.20
2023-03-17T08:08:27.199Z,0.80
2023-03-17T08:09:58.998Z,1.00
2023-03-17T08:11:31.087Z,1.00
2023-03-17T08:13:02.926Z,0.90
2023-03-17T08:14:34.947Z,1.30
2023-03-17T08:16:07.364Z,1.20
2023-03-17T08:17:40.106Z,1.10
2023-03-17T08:19:11.982Z,1.00
2023-03-17T08:20:43.743Z,1.30
2023-03-17T08:22:15.506Z,1.50
2023-03-17T08:23:48.601Z,1.20
2023-03-17T08:25:20.374Z,1.20
2023-03-17T08:26:52.356Z,1.10
2023-03-17T08:28:24.119Z,1.30
2023-03-17T08:29:56.837Z,1.10
2023-03-17T08:31:28.807Z,1.20
2023-03-17T08:33:00.706Z,1.30
2023-03-17T08:34:33.209Z,1.00
2023-03-17T08:36:09.355Z,1.40
2023-03-17T08:37:41.634Z,1.20
2023-03-17T08:39:13.822Z,0.80
2023-03-17T08:40:45.877Z,1.20
2023-03-17T08:42:17.700Z,1.30
2023-03-17T08:43:51.663Z,1.30
2023-03-17T08:45:24.107Z,0.90
2023-03-17T08:46:56.921Z,1.50
2023-03-17T08:48:30.346Z,1.10
2023-03-17T08:50:02.345Z,1.20
2023-03-17T08:51:37.444Z,1.00
2023-03-17T08:53:09.519Z,1.20
2023-03-17T08:54:41.279Z,0.90
2023-03-17T08:56:14.316Z,1.40
2023-03-17T08:57:46.436Z,0.90
2023-03-17T08:59:18.896Z,1.00
2023-03-17T09:00:51.020Z,0.80
2023-03-17T09:02:23.440Z,0.90
2023-03-17T09:03:56.205Z,1.20
2023-03-17T09:05:28.096Z,1.10
2023-03-17T09:07:03.705Z,1.30
2023-03-17T09:08:40.008Z,1.20
2023-03-17T09:10:14.733Z,1.10
2023-03-17T09:11:46.522Z,1.10
2023-03-17T09:13:19.141Z,1.00
2023-03-17T09:14:51.246Z,1.00
2023-03-17T09:16:25.302Z,0.80
2023-03-17T09:17:57.572Z,0.90
2023-03-17T09:19:29.345Z,0.70
2023-03-17T09:21:02.570Z,1.30
2023-03-17T09:22:34.328Z,0.90
2023-03-17T09:24:07.184Z,1.20
2023-03-17T09:25:42.234Z,1.20
2023-03-17T09:27:15.668Z,1.10
2023-03-17T09:28:47.457Z,1.10
2023-03-17T09:30:19.320Z,1.30
2023-03-17T09:31:51.576Z,0.90
2023-03-17T09:33:23.282Z,1.30
2023-03-17T09:34:54.972Z,1.00
2023-03-17T09:36:26.772Z,1.40
2023-03-17T09:37:58.875Z,1.30
2023-03-17T09:39:30.566Z,1.50
2023-03-17T09:41:52.908Z,1.10
2023-03-17T09:43:25.129Z,1.10
2023-03-17T09:45:13.361Z,1.60
2023-03-17T09:47:00.969Z,1.60
2023-03-17T09:48:38.484Z,1.30
2023-03-17T09:50:25.359Z,1.50
2023-03-17T09:51:57.298Z,1.40
2023-03-17T09:53:42.915Z,1.40
2023-03-17T09:55:31.348Z,1.30
2023-03-17T09:57:31.621Z,1.40
2023-03-17T09:59:43.830Z,1.10
2023-03-17T10:01:15.657Z,1.20
2023-03-17T10:02:47.489Z,1.50
2023-03-17T10:04:19.629Z,1.40
2023-03-17T10:05:52.016Z,1.30
2023-03-17T10:07:39.233Z,1.40
2023-03-17T10:09:35.634Z,1.70
2023-03-17T10:11:40.173Z,1.30
2023-03-17T10:13:51.761Z,1.30
2023-03-17T10:15:41.100Z,1.30
2023-03-17T10:17:22.245Z,1.60
2023-03-17T10:19:10.358Z,1.30
2023-03-17T10:20:55.117Z,1.10
2023-03-17T10:22:53.121Z,1.50
2023-03-17T10:24:32.578Z,1.10
2023-03-17T10:26:27.197Z,1.40
2023-03-17T10:28:03.492Z,1.20
2023-03-17T10:29:36.002Z,1.10
2023-03-17T10:31:30.661Z,1.70
2023-03-17T10:33:09.244Z,1.30
2023-03-17T10:34:43.427Z,1.60
2023-03-17T10:36:31.969Z,1.20
2023-03-17T10:38:21.467Z,1.40
2023-03-17T10:39:59.788Z,1.30
2023-03-17T10:41:48.567Z,1.40
2023-03-17T10:43:22.223Z,1.30
2023-03-17T10:45:14.290Z,1.30
2023-03-17T10:46:57.048Z,1.20
2023-03-17T10:48:35.369Z,1.50
2023-03-17T10:50:54.347Z,1.40
2023-03-17T10:52:30.542Z,1.50
2023-03-17T10:54:18.538Z,1.40
2023-03-17T10:55:54.328Z,1.40
2023-03-17T10:57:26.233Z,1.60
2023-03-17T10:59:08.340Z,1.20
2023-03-17T11:00:53.369Z,1.50
2023-03-17T11:02:45.094Z,1.40
2023-03-17T11:04:42.641Z,1.20
2023-03-17T11:06:22.596Z,1.20
2023-03-17T11:08:10.820Z,1.50
2023-03-17T11:09:42.683Z,1.30
2023-03-17T11:11:34.718Z,1.20
2023-03-17T11:13:06.811Z,1.20
2023-03-17T11:14:43.770Z,1.30
2023-03-17T11:16:22.388Z,1.20
2023-03-17T11:18:06.304Z,1.30
2023-03-17T11:20:01.463Z,1.30
2023-03-17T11:21:48.581Z,1.60
2023-03-17T11:23:44.259Z,1.60
2023-03-17T11:25:20.938Z,1.40
2023-03-17T11:27:00.118Z,1.40
2023-03-17T11:28:41.298Z,1.50
2023-03-17T11:30:27.934Z,1.50
2023-03-17T11:32:39.765Z,1.50
2023-03-17T11:34:23.510Z,1.20
2023-03-17T11:36:01.089Z,1.50
2023-03-17T11:37:57.427Z,1.20
2023-03-17T11:39:49.226Z,1.30
2023-03-17T11:42:00.089Z,1.30
2023-03-17T11:43:53.695Z,1.50
2023-03-17T11:45:43.739Z,1.40
2023-03-17T11:47:45.124Z,1.40
2023-03-17T11:49:24.237Z,1.20
2023-03-17T11:51:02.054Z,1.50
2023-03-17T11:52:57.923Z,1.40
2023-03-17T11:54:54.198Z,1.90
2023-03-17T11:57:03.093Z,1.30
2023-03-17T11:58:51.565Z,1.60
2023-03-17T12:00:34.458Z,1.70
2023-03-17T12:02:36.852Z,2.20
2023-03-17T12:04:35.199Z,1.30
2023-03-17T12:06:28.701Z,1.50
2023-03-17T12:08:17.363Z,1.70
2023-03-17T12:10:25.663Z,1.70
2023-03-17T12:12:02.426Z,1.90
2023-03-17T12:13:55.216Z,1.70
2023-03-17T12:15:47.350Z,1.60
2023-03-17T12:17:54.694Z,1.80
2023-03-17T12:19:45.838Z,1.70
2023-03-17T12:21:25.610Z,1.70
2023-03-17T12:23:45.778Z,1.80
2023-03-17T12:25:42.529Z,1.50
2023-03-17T12:27:28.672Z,1.80
2023-03-17T12:29:43.206Z,1.60
2023-03-17T12:31:32.190Z,1.80
2023-03-17T12:33:55.510Z,1.30
2023-03-17T12:35:36.898Z,1.60
2023-03-17T12:37:09.912Z,1.60
2023-03-17T12:38:51.358Z,1.80
2023-03-17T12:40:34.164Z,1.70
2023-03-17T12:42:22.289Z,1.60
2023-03-17T12:44:26.119Z,1.60
2023-03-17T12:46:48.967Z,1.60
2023-03-17T12:48:44.994Z,1.50
2023-03-17T12:50:35.864Z,1.50
2023-03-17T12:52:22.682Z,1.50
2023-03-17T12:53:55.331Z,1.60
2023-03-17T12:55:32.722Z,1.70
2023-03-17T12:57:26.798Z,1.90
2023-03-17T12:59:06.127Z,1.70
2023-03-17T13:00:57.606Z,2.20
2023-03-17T13:02:36.586Z,1.40
2023-03-17T13:04:26.930Z,1.40
2023-03-17T13:06:07.503Z,1.60
2023-03-17T13:08:02.358Z,1.60
2023-03-17T13:09:37.346Z,1.70
2023-03-17T13:11:29.528Z,1.60
2023-03-17T13:13:10.958Z,1.40
2023-03-17T13:14:44.318Z,1.70
2023-03-17T13:16:41.214Z,1.90
2023-03-17T13:18:16.074Z,1.80
2023-03-17T13:20:04.297Z,1.70
2023-03-17T13:21:36.573Z,1.80
2023-03-17T13:23:11.380Z,1.70
2023-03-17T13:24:47.254Z,1.50
2023-03-17T13:26:42.359Z,1.40
2023-03-17T13:28:14.950Z,1.50
2023-03-17T13:29:47.677Z,1.40
2023-03-17T13:31:33.822Z,1.80
2023-03-17T13:33:09.486Z,1.50
2023-03-17T13:34:48.818Z,1.40
2023-03-17T13:36:33.707Z,1.70
2023-03-17T13:39:05.137Z,1.50
2023-03-17T13:41:22.278Z,1.50
2023-03-17T13:43:48.932Z,1.70
2023-03-17T13:45:37.394Z,1.50
2023-03-17T13:47:22.827Z,1.30
2023-03-17T13:48:56.789Z,1.50
2023-03-17T13:50:33.603Z,1.90
2023-03-17T13:52:15.634Z,1.40
2023-03-17T13:53:56.659Z,1.70
2023-03-17T13:56:12.038Z,1.60
2023-03-17T13:58:10.498Z,1.90
2023-03-17T14:00:22.428Z,1.30
2023-03-17T14:02:04.564Z,1.50
2023-03-17T14:03:51.296Z,1.50
2023-03-17T14:05:30.736Z,1.40
2023-03-17T14:07:14.449Z,1.40
2023-03-17T14:08:53.204Z,1.30
2023-03-17T14:10:30.354Z,1.50
2023-03-17T14:12:33.437Z,1.40
2023-03-17T14:14:45.238Z,1.40
2023-03-17T14:16:26.799Z,1.40
2023-03-17T14:18:18.825Z,1.30
2023-03-17T14:20:23.411Z,1.40
2023-03-17T14:22:04.553Z,1.30
2023-03-17T14:23:36.758Z,1.60
2023-03-17T14:25:19.280Z,2.00
2023-03-17T14:26:53.014Z,1.40
2023-03-17T14:28:36.477Z,1.60
2023-03-17T14:30:28.693Z,1.70
2023-03-17T14:32:15.068Z,1.70
2023-03-17T14:33:46.936Z,1.50
2023-03-17T14:35:20.373Z,1.50
2023-03-17T14:36:52.245Z,1.60
2023-03-17T14:38:34.256Z,1.60
2023-03-17T14:40:26.930Z,1.80
2023-03-17T14:42:05.263Z,1.50
2023-03-17T14:43:37.153Z,1.40
2023-03-17T14:45:41.736Z,1.60
2023-03-17T14:47:24.428Z,1.60
2023-03-17T14:49:18.355Z,1.50
2023-03-17T14:50:55.564Z,1.70
2023-03-17T14:52:32.708Z,1.50
2023-03-17T14:54:19.835Z,1.60
2023-03-17T14:55:53.504Z,1.20
2023-03-17T14:57:33.201Z,1.60
2023-03-17T14:59:34.406Z,1.60
2023-03-17T15:01:33.162Z,1.90
2023-03-17T15:03:23.291Z,1.40
2023-03-17T15:05:05.636Z,1.40
2023-03-17T15:07:17.588Z,1.50
2023-03-17T15:08:50.919Z,1.60
2023-03-17T15:10:31.398Z,1.70
2023-03-17T15:12:22.422Z,1.60
2023-03-17T15:14:32.765Z,1.30
2023-03-17T15:16:18.197Z,1.50
2023-03-17T15:18:01.149Z,1.50
2023-03-17T15:19:42.902Z,1.40
2023-03-17T15:21:42.480Z,1.30
2023-03-17T15:23:25.012Z,1.60
2023-03-17T15:25:03.601Z,1.40
2023-03-17T15:26:37.145Z,1.60
2023-03-17T15:28:19.158Z,1.30
2023-03-17T15:29:50.922Z,1.50
2023-03-17T15:31:28.458Z,1.50
2023-03-17T15:33:03.148Z,1.70
2023-03-17T15:34:34.903Z,1.50
2023-03-17T15:36:07.710Z,1.50
2023-03-17T15:37:40.815Z,1.20
2023-03-17T15:39:12.933Z,1.40
2023-03-17T15:40:45.601Z,1.50
2023-03-17T15:42:20.397Z,1.30
2023-03-17T15:43:52.147Z,1.60
2023-03-17T15:45:31.213Z,1.30
2023-03-17T15:47:04.223Z,1.40
2023-03-17T15:48:36.743Z,1.60
2023-03-17T15:50:24.078Z,1.60
2023-03-17T15:51:56.105Z,1.30
2023-03-17T15:53:28.316Z,1.60
2023-03-17T15:55:00.303Z,1.70
2023-03-17T15:56:32.107Z,1.30
2023-03-17T15:58:03.862Z,1.30
2023-03-17T15:59:35.762Z,1.10
2023-03-17T16:01:11.985Z,1.10
2023-03-17T16:02:44.136Z,1.40
2023-03-17T16:04:17.954Z,1.50
2023-03-17T16:05:49.877Z,1.30
2023-03-17T16:07:22.477Z,1.20
2023-03-17T16:08:54.344Z,1.50
2023-03-17T16:10:30.856Z,1.40
2023-03-17T16:12:03.036Z,1.30
2023-03-17T16:13:34.884Z,1.30
2023-03-17T16:15:20.157Z,1.10
2023-03-17T16:16:54.120Z,1.30
2023-03-17T16:18:37.733Z,1.10
2023-03-17T16:20:41.650Z,1.40
2023-03-17T16:22:45.356Z,0.80
2023-03-17T16:24:39.118Z,1.20
2023-03-17T16:26:15.923Z,1.30
2023-03-17T16:27:49.409Z,1.30
2023-03-17T16:29:21.584Z,1.00
2023-03-17T16:30:55.868Z,1.00
2023-03-17T16:32:28.134Z,0.90
2023-03-17T16:34:00.180Z,1.20
2023-03-17T16:35:31.869Z,1.10
2023-03-17T16:37:04.193Z,1.30
2023-03-17T16:38:36.124Z,1.20
2023-03-17T16:40:19.054Z,1.60
2023-03-17T16:41:52.080Z,1.60
2023-03-17T16:43:30.947Z,1.30
2023-03-17T16:45:02.833Z,1.40
2023-03-17T16:46:35.753Z,0.90
2023-03-17T16:48:14.579Z,0.80
2023-03-17T16:49:46.745Z,1.20
2023-03-17T16:51:19.326Z,1.20
2023-03-17T16:52:51.520Z,1.40
2023-03-17T16:54:23.309Z,1.50
2023-03-17T16:55:55.688Z,1.20
2023-03-17T16:57:27.561Z,1.40
2023-03-17T16:59:00.295Z,1.00
2023-03-17T17:00:32.653Z,1.10
2023-03-17T17:02:15.457Z,1.00
2023-03-17T17:03:48.057Z,1.00
2023-03-17T17:05:27.164Z,1.20
2023-03-17T17:06:58.952Z,1.10
2023-03-17T17:08:30.772Z,1.30
2023-03-17T17:10:02.798Z,1.10
2023-03-17T17:11:34.477Z,1.20
2023-03-17T17:13:08.592Z,1.30
2023-03-17T17:14:40.386Z,1.00
2023-03-17T17:16:50.155Z,1.10
2023-03-17T17:18:24.593Z,1.00
2023-03-17T17:19:56.552Z,1.20
2023-03-17T17:21:28.690Z,1.40
2023-03-17T17:23:02.447Z,1.20
2023-03-17T17:24:34.257Z,1.30
2023-03-17T17:26:06.213Z,0.90
2023-03-17T17:27:41.983Z,1.20
2023-03-17T17:29:13.768Z,0.90
2023-03-17T17:30:48.108Z,1.00
2023-03-17T17:32:20.078Z,1.40
2023-03-17T17:33:51.818Z,1.20
2023-03-17T17:35:26.507Z,1.10
2023-03-17T17:36:58.480Z,1.20
2023-03-17T17:38:30.768Z,1.30
2023-03-17T17:40:03.710Z,1.30
2023-03-17T17:41:35.642Z,1.00
2023-03-17T17:43:09.721Z,1.10
2023-03-17T17:44:42.824Z,1.00
2023-03-17T17:46:20.009Z,1.20
2023-03-17T17:47:52.013Z,1.40
2023-03-17T17:49:24.194Z,1.20
2023-03-17T17:50:57.802Z,1.10
2023-03-17T17:52:29.553Z,1.00
2023-03-17T17:54:01.537Z,1.00
2023-03-17T17:55:34.313Z,0.90
2023-03-17T17:57:07.258Z,1.30
2023-03-17T17:58:39.213Z,0.90
2023-03-17T18:00:17.077Z,0.90
2023-03-17T18:01:49.467Z,1.20
2023-03-17T18:03:25.345Z,1.20
2023-03-17T18:04:57.181Z,0.80
2023-03-17T18:06:29.000Z,1.30
2023-03-17T18:08:02.423Z,1.00
2023-03-17T18:09:34.620Z,1.10
2023-03-17T18:11:06.933Z,0.90
2023-03-17T18:12:38.720Z,0.80
2023-03-17T18:14:11.014Z,1.10
2023-03-17T18:15:43.192Z,1.10
2023-03-17T18:17:21.505Z,1.30
2023-03-17T18:18:53.229Z,1.00
2023-03-17T18:20:27.184Z,1.10
2023-03-17T18:21:58.878Z,1.50
2023-03-17T18:23:30.656Z,1.50
2023-03-17T18:25:02.423Z,1.40
2023-03-17T18:26:34.172Z,1.00
2023-03-17T18:28:06.380Z,1.00
2023-03-17T18:29:39.107Z,1.00
2023-03-17T18:31:20.549Z,1.30
2023-03-17T18:32:59.481Z,1.10
2023-03-17T18:34:39.308Z,0.90
2023-03-17T18:36:11.674Z,1.50
2023-03-17T18:37:44.581Z,0.80
2023-03-17T18:39:17.034Z,0.90
2023-03-17T18:40:48.884Z,1.10
2023-03-17T18:42:21.206Z,0.90
2023-03-17T18:43:53.255Z,1.00
2023-03-17T18:45:25.588Z,0.90
2023-03-17T18:46:57.912Z,0.90
2023-03-17T18:48:29.854Z,1.20
2023-03-17T18:50:01.836Z,1.10
2023-03-17T18:51:34.119Z,1.20
2023-03-17T18:53:06.144Z,1.10
2023-03-17T18:54:38.012Z,0.90
2023-03-17T18:56:10.001Z,0.90
2023-03-17T18:57:44.612Z,1.00
2023-03-17T18:59:16.726Z,1.20
2023-03-17T19:00:49.633Z,1.20
2023-03-17T19:02:22.139Z,1.10
2023-03-17T19:03:54.340Z,1.00
2023-03-17T19:05:27.157Z,1.10
2023-03-17T19:06:58.992Z,0.90
2023-03-17T19:08:31.178Z,1.10
2023-03-17T19:10:05.237Z,0.80
2023-03-17T19:11:39.339Z,1.00
2023-03-17T19:13:11.905Z,0.80
2023-03-17T19:14:43.804Z,0.90
2023-03-17T19:16:16.744Z,1.30
2023-03-17T19:17:50.297Z,0.90
2023-03-17T19:19:22.117Z,1.40
2023-03-17T19:20:56.607Z,0.90
2023-03-17T19:22:28.649Z,0.70
2023-03-17T19:24:01.941Z,1.10
2023-03-17T19:25:34.102Z,1.20
2023-03-17T19:27:07.386Z,0.80
2023-03-17T19:28:40.171Z,1.10
2023-03-17T19:30:13.657Z,0.90
2023-03-17T19:31:48.380Z,0.50
2023-03-17T19:33:20.239Z,0.80
2023-03-17T19:34:52.409Z,0.80
2023-03-17T19:36:24.205Z,0.80
2023-03-17T19:37:56.540Z,0.80
2023-03-17T19:39:28.287Z,1.10
2023-03-17T19:41:00.507Z,0.90
2023-03-17T19:42:32.282Z,1.10
2023-03-17T19:44:07.868Z,1.00
2023-03-17T19:45:39.643Z,0.80
2023-03-17T19:47:11.458Z,1.00
2023-03-17T19:48:44.149Z,1.20
2023-03-17T19:50:16.203Z,0.80
2023-03-17T19:51:49.555Z,1.00
2023-03-17T19:53:21.503Z,0.90
2023-03-17T19:54:54.578Z,1.20
2023-03-17T19:56:27.933Z,1.30
2023-03-17T19:57:59.874Z,1.80
2023-03-17T19:59:31.858Z,1.10
2023-03-17T20:01:05.824Z,1.10
2023-03-17T20:02:37.996Z,1.00
2023-03-17T20:04:11.600Z,1.20
2023-03-17T20:05:46.441Z,1.10
2023-03-17T20:07:18.360Z,1.00
2023-03-17T20:08:50.976Z,1.10
2023-03-17T20:10:23.060Z,1.00
2023-03-17T20:11:56.743Z,1.20
2023-03-17T20:13:28.511Z,1.00
2023-03-17T20:15:01.559Z,1.40
2023-03-17T20:16:36.186Z,1.00
2023-03-17T20:18:08.456Z,1.10
2023-03-17T20:19:40.341Z,1.10
2023-03-17T20:21:13.872Z,1.20
2023-03-17T20:22:46.714Z,1.10
2023-03-17T20:24:18.432Z,1.20
2023-03-17T20:25:52.582Z,1.20
2023-03-17T20:27:24.795Z,1.20
2023-03-17T20:28:59.337Z,1.20
2023-03-17T20:30:32.174Z,1.30
2023-03-17T20:32:04.932Z,1.40
2023-03-17T20:33:36.715Z,1.40
2023-03-17T20:35:09.123Z,1.40
2023-03-17T20:36:42.567Z,1.40
2023-03-17T20:38:15.286Z,1.40
2023-03-17T20:39:47.038Z,1.50
2023-03-17T20:41:20.960Z,1.40
2023-03-17T20:42:53.175Z,1.20
2023-03-17T20:44:25.427Z,1.20
2023-03-17T20:45:57.214Z,1.20
2023-03-17T20:47:29.811Z,1.00
2023-03-17T20:49:02.158Z,1.10
2023-03-17T20:50:34.569Z,1.40
2023-03-17T20:52:06.743Z,1.40
2023-03-17T20:53:38.902Z,1.30
2023-03-17T20:55:14.984Z,1.50
2023-03-17T20:56:48.745Z,1.30
2023-03-17T20:58:20.510Z,1.30
2023-03-17T20:59:52.400Z,1.10
2023-03-17T21:01:27.335Z,1.20
2023-03-17T21:03:00.369Z,1.10
2023-03-17T21:04:32.333Z,1.30
2023-03-17T21:06:04.690Z,1.10
2023-03-17T21:07:36.548Z,1.10
2023-03-17T21:09:09.893Z,1.30
2023-03-17T21:10:41.880Z,1.10
2023-03-17T21:12:20.588Z,1.40
2023-03-17T21:13:53.846Z,1.00
2023-03-17T21:15:25.677Z,1.40
2023-03-17T21:16:57.903Z,0.90
2023-03-17T21:18:30.122Z,1.30
2023-03-17T21:20:02.335Z,1.10
2023-03-17T21:21:34.397Z,1.20
2023-03-17T21:23:07.984Z,0.90
2023-03-17T21:24:39.965Z,1.30
2023-03-17T21:26:14.258Z,1.20
2023-03-17T21:27:46.733Z,1.00
2023-03-17T21:29:18.690Z,0.90